sensor_id;sensor_type;location;lat;lon;timestamp;temperature;humidity
21037;DHT22;10677;50.942;4.028;2023-03-01T00:01:30;2.00;99.90
21037;DHT22;10677;50.942;4.028;2023-03-01T00:03:56;1.90;99.90
21037;DHT22;10677;50.942;4.028;2023-03-01T00:06:23;1.90;99.90
21037;DHT22;10677;50.942;4.028;2023-03-01T00:08:49;1.80;99.90
21037;DHT22;10677;50.942;4.028;2023-03-01T00:11:20;1.90;99.90
21037;DHT22;10677;50.942;4.028;2023-03-01T00:13:49;2.10;99.90
21037;DHT22;10677;50.942;4.028;2023-03-01T00:16:19;2.20;99.90
21037;DHT22;10677;50.942;4.028;2023-03-01T00:18:45;2.20;99.90
21037;DHT22;10677;50.942;4.028;2023-03-01T00:21:11;2.10;99.90
21037;DHT22;10677;50.942;4.028;2023-03-01T00:23:37;2.00;99.90
21037;DHT22;10677;50.942;4.028;2023-03-01T00:26:07;1.90;99.90
21037;DHT22;10677;50.942;4.028;2023-03-01T00:28:34;2.00;99.90
21037;DHT22;10677;50.942;4.028;2023-03-01T00:31:11;2.00;99.90
21037;DHT22;10677;50.942;4.028;2023-03-01T00:33:37;2.00;99.90
21037;DHT22;10677;50.942;4.028;2023-03-01T00:36:03;2.10;99.90
21037;DHT22;10677;50.942;4.028;2023-03-01T00:38:29;2.00;99.90
21037;DHT22;10677;50.942;4.028;2023-03-01T00:40:55;2.00;99.90
21037;DHT22;10677;50.942;4.028;2023-03-01T00:43:21;2.00;99.90
21037;DHT22;10677;50.942;4.028;2023-03-01T00:45:47;2.00;99.90
21037;DHT22;10677;50.942;4.028;2023-03-01T00:48:12;2.00;99.90
21037;DHT22;10677;50.942;4.028;2023-03-01T00:50:38;1.90;99.90
21037;DHT22;10677;50.942;4.028;2023-03-01T00:53:04;1.80;99.90
21037;DHT22;10677;50.942;4.028;2023-03-01T00:55:30;1.80;99.90
21037;DHT22;10677;50.942;4.028;2023-03-01T00:57:56;1.80;99.90
21037;DHT22;10677;50.942;4.028;2023-03-01T01:00:22;1.70;99.90
21037;DHT22;10677;50.942;4.028;2023-03-01T01:02:48;1.60;99.90
21037;DHT22;10677;50.942;4.028;2023-03-01T01:05:14;1.70;99.90
21037;DHT22;10677;50.942;4.028;2023-03-01T01:07:39;1.60;99.90
21037;DHT22;10677;50.942;4.028;2023-03-01T01:10:06;1.70;99.90
21037;DHT22;10677;50.942;4.028;2023-03-01T01:12:32;1.60;99.90
21037;DHT22;10677;50.942;4.028;2023-03-01T01:14:58;1.50;99.90
21037;DHT22;10677;50.942;4.028;2023-03-01T01:17:23;1.40;99.90
21037;DHT22;10677;50.942;4.028;2023-03-01T01:19:49;1.30;99.90
21037;DHT22;10677;50.942;4.028;2023-03-01T01:22:15;1.20;99.90
21037;DHT22;10677;50.942;4.028;2023-03-01T01:24:40;1.30;99.90
21037;DHT22;10677;50.942;4.028;2023-03-01T01:27:06;1.40;99.90
21037;DHT22;10677;50.942;4.028;2023-03-01T01:29:32;1.40;99.90
21037;DHT22;10677;50.942;4.028;2023-03-01T01:31:58;1.30;99.90
21037;DHT22;10677;50.942;4.028;2023-03-01T01:34:24;1.30;99.90
21037;DHT22;10677;50.942;4.028;2023-03-01T01:36:51;1.30;99.90
21037;DHT22;10677;50.942;4.028;2023-03-01T01:39:19;1.30;99.90
21037;DHT22;10677;50.942;4.028;2023-03-01T01:41:45;1.20;99.90
21037;DHT22;10677;50.942;4.028;2023-03-01T01:44:20;1.20;99.90
21037;DHT22;10677;50.942;4.028;2023-03-01T01:49:28;1.20;99.90
21037;DHT22;10677;50.942;4.028;2023-03-01T01:52:00;1.10;99.90
21037;DHT22;10677;50.942;4.028;2023-03-01T01:54:44;1.10;99.90
21037;DHT22;10677;50.942;4.028;2023-03-01T01:57:16;1.20;99.90
21037;DHT22;10677;50.942;4.028;2023-03-01T01:59:45;1.20;99.90
21037;DHT22;10677;50.942;4.028;2023-03-01T02:02:12;1.20;99.90
21037;DHT22;10677;50.942;4.028;2023-03-01T02:04:38;1.20;99.90
21037;DHT22;10677;50.942;4.028;2023-03-01T02:07:14;1.30;99.90
21037;DHT22;10677;50.942;4.028;2023-03-01T02:09:45;1.20;99.90
21037;DHT22;10677;50.942;4.028;2023-03-01T02:12:13;1.30;99.90
21037;DHT22;10677;50.942;4.028;2023-03-01T02:14:39;1.40;99.90
21037;DHT22;10677;50.942;4.028;2023-03-01T02:17:05;1.50;99.90
21037;DHT22;10677;50.942;4.028;2023-03-01T02:19:42;1.60;99.90
21037;DHT22;10677;50.942;4.028;2023-03-01T02:22:15;1.40;99.90
21037;DHT22;10677;50.942;4.028;2023-03-01T02:27:17;1.40;99.90
21037;DHT22;10677;50.942;4.028;2023-03-01T02:29:47;1.30;99.90
21037;DHT22;10677;50.942;4.028;2023-03-01T02:32:14;1.30;99.90
21037;DHT22;10677;50.942;4.028;2023-03-01T02:34:40;1.30;99.90
21037;DHT22;10677;50.942;4.028;2023-03-01T02:37:13;1.40;99.90
21037;DHT22;10677;50.942;4.028;2023-03-01T02:39:43;1.40;99.90
21037;DHT22;10677;50.942;4.028;2023-03-01T02:42:13;1.30;99.90
21037;DHT22;10677;50.942;4.028;2023-03-01T02:44:40;1.30;99.90
21037;DHT22;10677;50.942;4.028;2023-03-01T02:47:06;1.30;99.90
21037;DHT22;10677;50.942;4.028;2023-03-01T02:49:34;1.30;99.90
21037;DHT22;10677;50.942;4.028;2023-03-01T02:55:09;1.00;99.90
21037;DHT22;10677;50.942;4.028;2023-03-01T02:57:38;1.10;99.90
21037;DHT22;10677;50.942;4.028;2023-03-01T03:00:07;1.10;99.90
21037;DHT22;10677;50.942;4.028;2023-03-01T03:02:35;1.10;99.90
21037;DHT22;10677;50.942;4.028;2023-03-01T03:05:11;1.00;99.90
21037;DHT22;10677;50.942;4.028;2023-03-01T03:07:39;1.00;99.90
21037;DHT22;10677;50.942;4.028;2023-03-01T03:10:08;1.00;99.90
21037;DHT22;10677;50.942;4.028;2023-03-01T03:12:34;0.80;99.90
21037;DHT22;10677;50.942;4.028;2023-03-01T03:14:59;0.90;99.90
21037;DHT22;10677;50.942;4.028;2023-03-01T03:17:25;0.90;99.90
21037;DHT22;10677;50.942;4.028;2023-03-01T03:19:51;0.90;99.90
21037;DHT22;10677;50.942;4.028;2023-03-01T03:22:16;0.90;99.90
21037;DHT22;10677;50.942;4.028;2023-03-01T03:24:42;0.90;99.90
21037;DHT22;10677;50.942;4.028;2023-03-01T03:27:08;0.80;99.90
21037;DHT22;10677;50.942;4.028;2023-03-01T03:29:34;0.70;99.90
21037;DHT22;10677;50.942;4.028;2023-03-01T03:31:59;0.70;99.90
21037;DHT22;10677;50.942;4.028;2023-03-01T03:34:25;0.70;99.90
21037;DHT22;10677;50.942;4.028;2023-03-01T03:36:55;0.70;99.90
21037;DHT22;10677;50.942;4.028;2023-03-01T03:39:23;0.80;99.90
21037;DHT22;10677;50.942;4.028;2023-03-01T03:41:48;0.80;99.90
21037;DHT22;10677;50.942;4.028;2023-03-01T03:44:14;0.80;99.90
21037;DHT22;10677;50.942;4.028;2023-03-01T03:46:40;0.70;99.90
21037;DHT22;10677;50.942;4.028;2023-03-01T03:49:05;0.70;99.90
21037;DHT22;10677;50.942;4.028;2023-03-01T03:51:31;0.60;99.90
21037;DHT22;10677;50.942;4.028;2023-03-01T03:53:57;0.70;99.90
21037;DHT22;10677;50.942;4.028;2023-03-01T03:56:22;0.90;99.90
21037;DHT22;10677;50.942;4.028;2023-03-01T03:58:51;0.90;99.90
21037;DHT22;10677;50.942;4.028;2023-03-01T04:01:17;0.80;99.90
21037;DHT22;10677;50.942;4.028;2023-03-01T04:03:43;0.80;99.90
21037;DHT22;10677;50.942;4.028;2023-03-01T04:06:15;0.80;99.90
21037;DHT22;10677;50.942;4.028;2023-03-01T04:08:41;0.80;99.90
21037;DHT22;10677;50.942;4.028;2023-03-01T04:11:07;0.60;99.90
21037;DHT22;10677;50.942;4.028;2023-03-01T04:13:53;0.70;99.90
21037;DHT22;10677;50.942;4.028;2023-03-01T04:16:19;0.80;99.90
21037;DHT22;10677;50.942;4.028;2023-03-01T04:18:46;0.80;99.90
21037;DHT22;10677;50.942;4.028;2023-03-01T04:21:11;0.90;99.90
21037;DHT22;10677;50.942;4.028;2023-03-01T04:23:38;0.90;99.90
21037;DHT22;10677;50.942;4.028;2023-03-01T04:26:04;0.80;99.90
21037;DHT22;10677;50.942;4.028;2023-03-01T04:28:39;0.80;99.90
21037;DHT22;10677;50.942;4.028;2023-03-01T04:31:11;0.80;99.90
21037;DHT22;10677;50.942;4.028;2023-03-01T04:33:42;0.70;99.90
21037;DHT22;10677;50.942;4.028;2023-03-01T04:36:09;0.70;99.90
21037;DHT22;10677;50.942;4.028;2023-03-01T04:38:37;0.60;99.90
21037;DHT22;10677;50.942;4.028;2023-03-01T04:41:07;0.50;99.90
21037;DHT22;10677;50.942;4.028;2023-03-01T04:43:33;0.60;99.90
21037;DHT22;10677;50.942;4.028;2023-03-01T04:46:09;0.60;99.90
21037;DHT22;10677;50.942;4.028;2023-03-01T04:48:36;0.40;99.90
21037;DHT22;10677;50.942;4.028;2023-03-01T04:51:03;0.40;99.90
21037;DHT22;10677;50.942;4.028;2023-03-01T04:53:29;0.30;99.90
21037;DHT22;10677;50.942;4.028;2023-03-01T04:55:56;0.20;99.90
21037;DHT22;10677;50.942;4.028;2023-03-01T04:58:28;0.20;99.90
21037;DHT22;10677;50.942;4.028;2023-03-01T05:00:54;0.20;99.90
21037;DHT22;10677;50.942;4.028;2023-03-01T05:03:20;0.20;99.90
21037;DHT22;10677;50.942;4.028;2023-03-01T05:05:49;0.20;99.90
21037;DHT22;10677;50.942;4.028;2023-03-01T05:08:15;0.20;99.90
21037;DHT22;10677;50.942;4.028;2023-03-01T05:10:51;0.20;99.90
21037;DHT22;10677;50.942;4.028;2023-03-01T05:13:19;0.10;99.90
21037;DHT22;10677;50.942;4.028;2023-03-01T05:15:59;-0.20;99.90
21037;DHT22;10677;50.942;4.028;2023-03-01T05:18:25;-0.10;99.90
21037;DHT22;10677;50.942;4.028;2023-03-01T05:20:55;0.10;99.90
21037;DHT22;10677;50.942;4.028;2023-03-01T05:23:24;0.30;99.90
21037;DHT22;10677;50.942;4.028;2023-03-01T05:25:50;0.30;99.90
21037;DHT22;10677;50.942;4.028;2023-03-01T05:28:18;0.40;99.90
21037;DHT22;10677;50.942;4.028;2023-03-01T05:30:45;0.10;99.90
21037;DHT22;10677;50.942;4.028;2023-03-01T05:33:11;-0.20;99.90
21037;DHT22;10677;50.942;4.028;2023-03-01T05:35:43;-0.40;99.90
21037;DHT22;10677;50.942;4.028;2023-03-01T05:38:11;-0.20;99.90
21037;DHT22;10677;50.942;4.028;2023-03-01T05:40:44;0.10;99.90
21037;DHT22;10677;50.942;4.028;2023-03-01T05:43:11;0.40;99.90
21037;DHT22;10677;50.942;4.028;2023-03-01T05:45:38;0.40;99.90
21037;DHT22;10677;50.942;4.028;2023-03-01T05:48:05;0.30;99.90
21037;DHT22;10677;50.942;4.028;2023-03-01T05:50:38;0.30;99.90
21037;DHT22;10677;50.942;4.028;2023-03-01T05:53:07;0.30;99.90
21037;DHT22;10677;50.942;4.028;2023-03-01T05:55:35;0.30;99.90
21037;DHT22;10677;50.942;4.028;2023-03-01T05:58:03;0.20;99.90
21037;DHT22;10677;50.942;4.028;2023-03-01T06:00:29;0.30;99.90
21037;DHT22;10677;50.942;4.028;2023-03-01T06:02:56;0.20;99.90
21037;DHT22;10677;50.942;4.028;2023-03-01T06:05:22;0.20;99.90
21037;DHT22;10677;50.942;4.028;2023-03-01T06:07:48;0.20;99.90
21037;DHT22;10677;50.942;4.028;2023-03-01T06:10:16;0.20;99.90
21037;DHT22;10677;50.942;4.028;2023-03-01T06:12:42;0.20;99.90
21037;DHT22;10677;50.942;4.028;2023-03-01T06:15:11;0.20;99.90
21037;DHT22;10677;50.942;4.028;2023-03-01T06:17:39;0.20;99.90
21037;DHT22;10677;50.942;4.028;2023-03-01T06:20:14;0.20;99.90
21037;DHT22;10677;50.942;4.028;2023-03-01T06:22:40;0.10;99.90
21037;DHT22;10677;50.942;4.028;2023-03-01T06:25:08;0.10;99.90
21037;DHT22;10677;50.942;4.028;2023-03-01T06:27:34;0.10;99.90
21037;DHT22;10677;50.942;4.028;2023-03-01T06:30:00;0.20;99.90
21037;DHT22;10677;50.942;4.028;2023-03-01T06:32:27;0.20;99.90
21037;DHT22;10677;50.942;4.028;2023-03-01T06:34:53;0.30;99.90
21037;DHT22;10677;50.942;4.028;2023-03-01T06:37:18;0.30;99.90
21037;DHT22;10677;50.942;4.028;2023-03-01T06:39:45;0.40;99.90
21037;DHT22;10677;50.942;4.028;2023-03-01T06:42:11;0.40;99.90
21037;DHT22;10677;50.942;4.028;2023-03-01T06:44:37;0.40;99.90
21037;DHT22;10677;50.942;4.028;2023-03-01T06:47:04;0.40;99.90
21037;DHT22;10677;50.942;4.028;2023-03-01T06:49:29;0.40;99.90
21037;DHT22;10677;50.942;4.028;2023-03-01T06:51:56;0.40;99.90
21037;DHT22;10677;50.942;4.028;2023-03-01T06:54:21;0.50;99.90
21037;DHT22;10677;50.942;4.028;2023-03-01T06:56:48;0.50;99.90
21037;DHT22;10677;50.942;4.028;2023-03-01T06:59:15;0.70;99.90
21037;DHT22;10677;50.942;4.028;2023-03-01T07:01:40;0.70;99.90
21037;DHT22;10677;50.942;4.028;2023-03-01T07:04:07;0.70;99.90
21037;DHT22;10677;50.942;4.028;2023-03-01T07:06:33;0.70;99.90
21037;DHT22;10677;50.942;4.028;2023-03-01T07:08:59;0.70;99.90
21037;DHT22;10677;50.942;4.028;2023-03-01T07:11:25;0.70;99.90
21037;DHT22;10677;50.942;4.028;2023-03-01T07:13:51;0.60;99.90
21037;DHT22;10677;50.942;4.028;2023-03-01T07:16:21;0.50;99.90
21037;DHT22;10677;50.942;4.028;2023-03-01T07:18:47;0.60;99.90
21037;DHT22;10677;50.942;4.028;2023-03-01T07:21:14;0.60;99.90
21037;DHT22;10677;50.942;4.028;2023-03-01T07:23:41;0.40;99.90
21037;DHT22;10677;50.942;4.028;2023-03-01T07:26:06;0.30;99.90
21037;DHT22;10677;50.942;4.028;2023-03-01T07:28:32;0.30;99.90
21037;DHT22;10677;50.942;4.028;2023-03-01T07:31:04;0.20;99.90
21037;DHT22;10677;50.942;4.028;2023-03-01T07:33:30;0.30;99.90
21037;DHT22;10677;50.942;4.028;2023-03-01T07:36:00;0.40;99.90
21037;DHT22;10677;50.942;4.028;2023-03-01T07:38:28;0.80;99.90
21037;DHT22;10677;50.942;4.028;2023-03-01T07:40:58;0.90;99.90
21037;DHT22;10677;50.942;4.028;2023-03-01T07:43:24;1.00;99.90
21037;DHT22;10677;50.942;4.028;2023-03-01T07:45:50;1.10;99.90
21037;DHT22;10677;50.942;4.028;2023-03-01T07:48:17;1.30;99.90
21037;DHT22;10677;50.942;4.028;2023-03-01T07:50:42;1.40;99.90
21037;DHT22;10677;50.942;4.028;2023-03-01T07:53:09;1.30;99.90
21037;DHT22;10677;50.942;4.028;2023-03-01T07:55:35;1.30;99.90
21037;DHT22;10677;50.942;4.028;2023-03-01T07:58:01;1.60;99.90
21037;DHT22;10677;50.942;4.028;2023-03-01T08:00:27;1.70;99.90
21037;DHT22;10677;50.942;4.028;2023-03-01T08:02:52;1.80;99.90
21037;DHT22;10677;50.942;4.028;2023-03-01T08:05:18;1.80;99.90
21037;DHT22;10677;50.942;4.028;2023-03-01T08:07:44;1.80;99.90
21037;DHT22;10677;50.942;4.028;2023-03-01T08:10:10;1.70;99.90
21037;DHT22;10677;50.942;4.028;2023-03-01T08:12:36;1.70;99.90
21037;DHT22;10677;50.942;4.028;2023-03-01T08:15:01;1.80;99.90
21037;DHT22;10677;50.942;4.028;2023-03-01T08:17:27;1.70;99.90
21037;DHT22;10677;50.942;4.028;2023-03-01T08:19:53;1.80;99.90
21037;DHT22;10677;50.942;4.028;2023-03-01T08:22:18;1.80;99.90
21037;DHT22;10677;50.942;4.028;2023-03-01T08:24:44;1.90;99.90
21037;DHT22;10677;50.942;4.028;2023-03-01T08:27:10;2.10;99.90
21037;DHT22;10677;50.942;4.028;2023-03-01T08:29:37;2.00;99.90
21037;DHT22;10677;50.942;4.028;2023-03-01T08:32:03;2.10;99.90
21037;DHT22;10677;50.942;4.028;2023-03-01T08:34:29;2.10;99.90
21037;DHT22;10677;50.942;4.028;2023-03-01T08:36:56;2.20;99.90
21037;DHT22;10677;50.942;4.028;2023-03-01T08:39:22;2.00;99.90
21037;DHT22;10677;50.942;4.028;2023-03-01T08:41:48;2.00;99.90
21037;DHT22;10677;50.942;4.028;2023-03-01T08:44:14;2.20;99.90
21037;DHT22;10677;50.942;4.028;2023-03-01T08:46:43;2.20;99.90
21037;DHT22;10677;50.942;4.028;2023-03-01T08:49:14;2.20;99.90
21037;DHT22;10677;50.942;4.028;2023-03-01T08:51:41;2.30;99.90
21037;DHT22;10677;50.942;4.028;2023-03-01T08:54:10;2.30;99.90
21037;DHT22;10677;50.942;4.028;2023-03-01T08:56:37;2.30;99.90
21037;DHT22;10677;50.942;4.028;2023-03-01T08:59:03;2.30;99.90
21037;DHT22;10677;50.942;4.028;2023-03-01T09:01:29;2.40;99.90
21037;DHT22;10677;50.942;4.028;2023-03-01T09:03:54;2.40;99.90
21037;DHT22;10677;50.942;4.028;2023-03-01T09:06:20;2.50;99.90
21037;DHT22;10677;50.942;4.028;2023-03-01T09:08:48;2.50;99.90
21037;DHT22;10677;50.942;4.028;2023-03-01T09:11:21;2.50;99.90
21037;DHT22;10677;50.942;4.028;2023-03-01T09:13:47;2.70;99.90
21037;DHT22;10677;50.942;4.028;2023-03-01T09:16:15;2.70;99.90
21037;DHT22;10677;50.942;4.028;2023-03-01T09:18:42;2.70;99.90
21037;DHT22;10677;50.942;4.028;2023-03-01T09:21:14;2.80;99.90
21037;DHT22;10677;50.942;4.028;2023-03-01T09:23:44;2.90;99.90
21037;DHT22;10677;50.942;4.028;2023-03-01T09:26:12;3.10;99.90
21037;DHT22;10677;50.942;4.028;2023-03-01T09:28:39;3.20;99.90
21037;DHT22;10677;50.942;4.028;2023-03-01T09:31:06;3.20;99.90
21037;DHT22;10677;50.942;4.028;2023-03-01T09:33:33;3.40;99.90
21037;DHT22;10677;50.942;4.028;2023-03-01T09:36:01;3.50;99.90
21037;DHT22;10677;50.942;4.028;2023-03-01T09:38:28;3.60;99.90
21037;DHT22;10677;50.942;4.028;2023-03-01T09:40:54;3.60;99.90
21037;DHT22;10677;50.942;4.028;2023-03-01T09:43:46;3.60;99.90
21037;DHT22;10677;50.942;4.028;2023-03-01T09:46:14;3.50;99.90
21037;DHT22;10677;50.942;4.028;2023-03-01T09:48:59;3.60;99.90
21037;DHT22;10677;50.942;4.028;2023-03-01T09:51:35;3.60;99.90
21037;DHT22;10677;50.942;4.028;2023-03-01T09:54:03;3.70;99.90
21037;DHT22;10677;50.942;4.028;2023-03-01T09:57:03;3.80;99.90
21037;DHT22;10677;50.942;4.028;2023-03-01T09:59:56;3.90;99.90
21037;DHT22;10677;50.942;4.028;2023-03-01T10:05:34;4.00;99.90
21037;DHT22;10677;50.942;4.028;2023-03-01T10:08:16;4.10;99.90
21037;DHT22;10677;50.942;4.028;2023-03-01T10:10:46;4.10;99.90
21037;DHT22;10677;50.942;4.028;2023-03-01T10:16:21;4.30;99.90
21037;DHT22;10677;50.942;4.028;2023-03-01T10:18:55;4.20;99.90
21037;DHT22;10677;50.942;4.028;2023-03-01T10:21:22;4.20;99.90
21037;DHT22;10677;50.942;4.028;2023-03-01T10:23:52;4.20;99.90
21037;DHT22;10677;50.942;4.028;2023-03-01T10:26:34;4.10;99.90
21037;DHT22;10677;50.942;4.028;2023-03-01T10:29:12;4.10;99.90
21037;DHT22;10677;50.942;4.028;2023-03-01T10:31:47;4.20;99.90
21037;DHT22;10677;50.942;4.028;2023-03-01T10:34:20;4.30;99.90
21037;DHT22;10677;50.942;4.028;2023-03-01T10:36:50;4.30;99.90
21037;DHT22;10677;50.942;4.028;2023-03-01T10:39:19;4.40;99.90
21037;DHT22;10677;50.942;4.028;2023-03-01T10:42:00;4.50;99.90
21037;DHT22;10677;50.942;4.028;2023-03-01T10:44:43;4.50;99.90
21037;DHT22;10677;50.942;4.028;2023-03-01T10:47:24;4.50;99.90
21037;DHT22;10677;50.942;4.028;2023-03-01T10:49:53;4.60;99.90
21037;DHT22;10677;50.942;4.028;2023-03-01T10:52:22;4.70;99.90
21037;DHT22;10677;50.942;4.028;2023-03-01T10:54:54;4.60;99.90
21037;DHT22;10677;50.942;4.028;2023-03-01T10:57:35;4.70;99.90
21037;DHT22;10677;50.942;4.028;2023-03-01T11:00:21;4.80;99.90
21037;DHT22;10677;50.942;4.028;2023-03-01T11:03:12;4.90;99.90
21037;DHT22;10677;50.942;4.028;2023-03-01T11:08:36;5.10;99.90
21037;DHT22;10677;50.942;4.028;2023-03-01T11:11:52;5.10;99.90
21037;DHT22;10677;50.942;4.028;2023-03-01T11:14:13;5.00;99.90
21037;DHT22;10677;50.942;4.028;2023-03-01T11:16:42;5.10;99.90
21037;DHT22;10677;50.942;4.028;2023-03-01T11:21:39;5.20;99.90
21037;DHT22;10677;50.942;4.028;2023-03-01T11:24:10;5.20;99.90
21037;DHT22;10677;50.942;4.028;2023-03-01T11:26:39;5.30;99.90
21037;DHT22;10677;50.942;4.028;2023-03-01T11:29:16;5.20;99.90
21037;DHT22;10677;50.942;4.028;2023-03-01T11:31:43;5.30;99.90
21037;DHT22;10677;50.942;4.028;2023-03-01T11:34:19;5.20;99.90
21037;DHT22;10677;50.942;4.028;2023-03-01T11:36:54;5.20;99.90
21037;DHT22;10677;50.942;4.028;2023-03-01T11:42:10;5.60;99.90
21037;DHT22;10677;50.942;4.028;2023-03-01T11:44:38;5.80;99.90
21037;DHT22;10677;50.942;4.028;2023-03-01T11:57:56;5.80;99.90
21037;DHT22;10677;50.942;4.028;2023-03-01T12:01:09;5.90;99.90
21037;DHT22;10677;50.942;4.028;2023-03-01T12:12:06;5.90;99.90
21037;DHT22;10677;50.942;4.028;2023-03-01T12:14:50;6.00;99.90
21037;DHT22;10677;50.942;4.028;2023-03-01T12:20:14;6.30;99.90
21037;DHT22;10677;50.942;4.028;2023-03-01T12:39:42;6.70;99.90
21037;DHT22;10677;50.942;4.028;2023-03-01T12:45:30;6.30;99.90
21037;DHT22;10677;50.942;4.028;2023-03-01T12:48:15;6.50;99.90
21037;DHT22;10677;50.942;4.028;2023-03-01T12:50:52;6.60;99.90
21037;DHT22;10677;50.942;4.028;2023-03-01T12:53:44;6.70;99.90
21037;DHT22;10677;50.942;4.028;2023-03-01T12:56:13;6.90;99.90
21037;DHT22;10677;50.942;4.028;2023-03-01T13:26:14;6.90;99.90
21037;DHT22;10677;50.942;4.028;2023-03-01T13:33:52;6.80;99.90
21037;DHT22;10677;50.942;4.028;2023-03-01T13:39:02;7.30;99.90
21037;DHT22;10677;50.942;4.028;2023-03-01T13:44:23;7.60;99.90
21037;DHT22;10677;50.942;4.028;2023-03-01T13:46:53;7.70;99.90
21037;DHT22;10677;50.942;4.028;2023-03-01T13:49:25;7.70;99.90
21037;DHT22;10677;50.942;4.028;2023-03-01T13:51:51;7.80;99.90
21037;DHT22;10677;50.942;4.028;2023-03-01T13:54:26;7.80;99.90
21037;DHT22;10677;50.942;4.028;2023-03-01T13:56:54;7.70;99.90
21037;DHT22;10677;50.942;4.028;2023-03-01T13:59:22;7.70;99.90
21037;DHT22;10677;50.942;4.028;2023-03-01T14:01:56;7.70;99.90
21037;DHT22;10677;50.942;4.028;2023-03-01T14:04:24;7.60;99.90
21037;DHT22;10677;50.942;4.028;2023-03-01T14:06:51;7.60;99.90
21037;DHT22;10677;50.942;4.028;2023-03-01T14:09:23;7.80;99.90
21037;DHT22;10677;50.942;4.028;2023-03-01T14:14:48;8.20;99.90
21037;DHT22;10677;50.942;4.028;2023-03-01T14:20:27;8.50;99.90
21037;DHT22;10677;50.942;4.028;2023-03-01T14:22:57;8.90;99.90
21037;DHT22;10677;50.942;4.028;2023-03-01T14:25:32;9.00;99.90
21037;DHT22;10677;50.942;4.028;2023-03-01T14:28:04;9.30;99.90
21037;DHT22;10677;50.942;4.028;2023-03-01T14:30:41;9.70;99.90
21037;DHT22;10677;50.942;4.028;2023-03-01T14:33:25;9.90;99.90
21037;DHT22;10677;50.942;4.028;2023-03-01T14:38:29;11.10;99.90
21037;DHT22;10677;50.942;4.028;2023-03-01T14:40:59;11.60;99.90
21037;DHT22;10677;50.942;4.028;2023-03-01T14:43:27;11.40;99.90
21037;DHT22;10677;50.942;4.028;2023-03-01T14:45:54;11.50;99.90
21037;DHT22;10677;50.942;4.028;2023-03-01T14:48:20;11.70;99.90
21037;DHT22;10677;50.942;4.028;2023-03-01T14:50:46;12.60;99.90
21037;DHT22;10677;50.942;4.028;2023-03-01T14:53:18;12.80;99.90
21037;DHT22;10677;50.942;4.028;2023-03-01T14:56:00;13.30;99.90
21037;DHT22;10677;50.942;4.028;2023-03-01T14:58:32;13.50;99.90
21037;DHT22;10677;50.942;4.028;2023-03-01T15:01:00;13.80;99.90
21037;DHT22;10677;50.942;4.028;2023-03-01T15:03:41;13.00;99.90
21037;DHT22;10677;50.942;4.028;2023-03-01T15:06:09;12.50;99.90
21037;DHT22;10677;50.942;4.028;2023-03-01T15:08:41;12.70;99.90
21037;DHT22;10677;50.942;4.028;2023-03-01T15:13:39;13.60;99.90
21037;DHT22;10677;50.942;4.028;2023-03-01T15:16:13;13.40;99.90
21037;DHT22;10677;50.942;4.028;2023-03-01T15:18:45;12.90;99.90
21037;DHT22;10677;50.942;4.028;2023-03-01T15:21:24;13.10;99.90
21037;DHT22;10677;50.942;4.028;2023-03-01T15:24:16;13.30;99.90
21037;DHT22;10677;50.942;4.028;2023-03-01T15:26:59;13.10;99.90
21037;DHT22;10677;50.942;4.028;2023-03-01T15:29:32;13.80;99.90
21037;DHT22;10677;50.942;4.028;2023-03-01T15:32:04;13.90;99.90
21037;DHT22;10677;50.942;4.028;2023-03-01T15:34:35;14.00;99.90
21037;DHT22;10677;50.942;4.028;2023-03-01T15:37:04;14.00;99.90
21037;DHT22;10677;50.942;4.028;2023-03-01T15:47:48;14.10;99.90
21037;DHT22;10677;50.942;4.028;2023-03-01T15:50:27;13.90;99.90
21037;DHT22;10677;50.942;4.028;2023-03-01T15:52:53;13.80;99.90
21037;DHT22;10677;50.942;4.028;2023-03-01T15:55:24;13.70;99.90
21037;DHT22;10677;50.942;4.028;2023-03-01T16:00:29;13.00;99.90
21037;DHT22;10677;50.942;4.028;2023-03-01T16:02:55;12.70;99.90
21037;DHT22;10677;50.942;4.028;2023-03-01T16:05:27;12.70;99.90
21037;DHT22;10677;50.942;4.028;2023-03-01T16:07:54;13.00;99.90
21037;DHT22;10677;50.942;4.028;2023-03-01T16:10:20;13.60;99.90
21037;DHT22;10677;50.942;4.028;2023-03-01T16:12:46;13.60;99.90
21037;DHT22;10677;50.942;4.028;2023-03-01T16:17:45;13.80;99.90
21037;DHT22;10677;50.942;4.028;2023-03-01T16:20:11;13.30;99.90
21037;DHT22;10677;50.942;4.028;2023-03-01T16:22:36;12.70;99.90
21037;DHT22;10677;50.942;4.028;2023-03-01T16:25:02;12.70;99.90
21037;DHT22;10677;50.942;4.028;2023-03-01T16:27:28;12.70;99.90
21037;DHT22;10677;50.942;4.028;2023-03-01T16:29:54;12.10;99.90
21037;DHT22;10677;50.942;4.028;2023-03-01T16:32:20;11.30;99.90
21037;DHT22;10677;50.942;4.028;2023-03-01T16:34:45;10.40;99.90
21037;DHT22;10677;50.942;4.028;2023-03-01T16:37:15;9.80;99.90
21037;DHT22;10677;50.942;4.028;2023-03-01T16:39:40;9.40;99.90
21037;DHT22;10677;50.942;4.028;2023-03-01T16:42:06;9.10;99.90
21037;DHT22;10677;50.942;4.028;2023-03-01T16:44:32;8.80;99.90
21037;DHT22;10677;50.942;4.028;2023-03-01T16:46:57;8.70;99.90
21037;DHT22;10677;50.942;4.028;2023-03-01T16:49:23;8.60;99.90
21037;DHT22;10677;50.942;4.028;2023-03-01T16:51:49;8.40;99.90
21037;DHT22;10677;50.942;4.028;2023-03-01T16:54:15;8.30;99.90
21037;DHT22;10677;50.942;4.028;2023-03-01T16:56:41;8.20;99.90
21037;DHT22;10677;50.942;4.028;2023-03-01T16:59:07;8.20;99.90
21037;DHT22;10677;50.942;4.028;2023-03-01T17:01:33;8.20;99.90
21037;DHT22;10677;50.942;4.028;2023-03-01T17:04:00;8.30;99.90
21037;DHT22;10677;50.942;4.028;2023-03-01T17:06:26;8.20;99.90
21037;DHT22;10677;50.942;4.028;2023-03-01T17:08:52;8.00;99.90
21037;DHT22;10677;50.942;4.028;2023-03-01T17:11:19;7.90;99.90
21037;DHT22;10677;50.942;4.028;2023-03-01T17:13:46;7.80;99.90
21037;DHT22;10677;50.942;4.028;2023-03-01T17:16:14;7.70;99.90
21037;DHT22;10677;50.942;4.028;2023-03-01T17:18:41;7.70;99.90
21037;DHT22;10677;50.942;4.028;2023-03-01T17:21:07;7.80;99.90
21037;DHT22;10677;50.942;4.028;2023-03-01T17:23:35;7.70;99.90
21037;DHT22;10677;50.942;4.028;2023-03-01T17:26:01;7.70;99.90
21037;DHT22;10677;50.942;4.028;2023-03-01T17:28:31;7.50;99.90
21037;DHT22;10677;50.942;4.028;2023-03-01T17:30:59;7.50;99.90
21037;DHT22;10677;50.942;4.028;2023-03-01T17:33:25;7.50;99.90
21037;DHT22;10677;50.942;4.028;2023-03-01T17:35:50;7.40;99.90
21037;DHT22;10677;50.942;4.028;2023-03-01T17:38:17;7.30;99.90
21037;DHT22;10677;50.942;4.028;2023-03-01T17:40:43;7.30;99.90
21037;DHT22;10677;50.942;4.028;2023-03-01T17:43:13;7.30;99.90
21037;DHT22;10677;50.942;4.028;2023-03-01T17:45:39;7.20;99.90
21037;DHT22;10677;50.942;4.028;2023-03-01T17:48:06;7.20;99.90
21037;DHT22;10677;50.942;4.028;2023-03-01T17:50:32;7.10;99.90
21037;DHT22;10677;50.942;4.028;2023-03-01T17:52:58;7.10;99.90
21037;DHT22;10677;50.942;4.028;2023-03-01T17:55:24;7.00;99.90
21037;DHT22;10677;50.942;4.028;2023-03-01T17:57:50;6.80;99.90
21037;DHT22;10677;50.942;4.028;2023-03-01T18:00:16;6.80;99.90
21037;DHT22;10677;50.942;4.028;2023-03-01T18:02:42;6.90;99.90
21037;DHT22;10677;50.942;4.028;2023-03-01T18:05:09;6.80;99.90